KLM1700 EBBR-EHAM
Flight info
| Callsign | KLM1700 |
|---|---|
| Flight time | N/A |
| Altitude | 16000 |
| Route | HELEN |
| Aircraft | B789/H-SDE1E2E3FGHIJ2J3J4J5M1RWXY/LB1D1 |
Departure
| Time | 2026-05-06 16:03 |
|---|---|
| Airport | Brussels Airport (EBBR) |
Arrival
| Time | N/A |
|---|---|
| Airport | Amsterdam Airport Schiphol (EHAM) |
| Time | Latitude | Longitude | Altitude | Speed | Heading |
|---|---|---|---|---|---|
| 2026-05-06 15:21 | 50.90541 | 4.49033 | 136 ft | 0 kts | 189° |
| 2026-05-06 15:56 | 50.90552 | 4.49035 | 126 ft | 2 kts | 185° |
| 2026-05-06 15:56 | 50.90568 | 4.49037 | 125 ft | 2 kts | 178° |
| 2026-05-06 15:56 | 50.90585 | 4.49034 | 122 ft | 2 kts | 169° |
| 2026-05-06 15:57 | 50.90600 | 4.49026 | 121 ft | 2 kts | 148° |
| 2026-05-06 15:57 | 50.90612 | 4.49008 | 121 ft | 2 kts | 116° |
| 2026-05-06 15:57 | 50.90615 | 4.48983 | 123 ft | 2 kts | 85° |
| 2026-05-06 15:57 | 50.90614 | 4.48971 | 122 ft | 0 kts | 72° |
| 2026-05-06 15:59 | 50.90616 | 4.48978 | 123 ft | 2 kts | 71° |
| 2026-05-06 15:59 | 50.90627 | 4.49023 | 121 ft | 6 kts | 66° |
| 2026-05-06 15:59 | 50.90653 | 4.49104 | 121 ft | 10 kts | 64° |
| 2026-05-06 15:59 | 50.90687 | 4.49221 | 124 ft | 14 kts | 65° |
| 2026-05-06 16:00 | 50.90731 | 4.49373 | 125 ft | 17 kts | 65° |
| 2026-05-06 16:00 | 50.90785 | 4.49557 | 124 ft | 20 kts | 65° |
| 2026-05-06 16:00 | 50.90859 | 4.49745 | 127 ft | 19 kts | 33° |
| 2026-05-06 16:00 | 50.90971 | 4.49852 | 123 ft | 20 kts | 36° |
| 2026-05-06 16:01 | 50.91033 | 4.49906 | 123 ft | 0 kts | 24° |
| 2026-05-06 16:01 | 50.91039 | 4.49911 | 123 ft | 5 kts | 24° |
| 2026-05-06 16:02 | 50.91101 | 4.49933 | 123 ft | 10 kts | 349° |
| 2026-05-06 16:02 | 50.91128 | 4.49886 | 121 ft | 3 kts | 279° |
| 2026-05-06 16:02 | 50.91114 | 4.49788 | 121 ft | 21 kts | 246° |
| 2026-05-06 16:02 | 50.90960 | 4.49265 | 121 ft | 86 kts | 245° |
| 2026-05-06 16:03 | 50.90619 | 4.48091 | 124 ft | 147 kts | 245° |
| 2026-05-06 16:03 | 50.90113 | 4.46369 | 220 ft | 191 kts | 241° |
| 2026-05-06 16:03 | 50.89591 | 4.44452 | 937 ft | 191 kts | 263° |
| 2026-05-06 16:03 | 50.90012 | 4.42606 | 1895 ft | 177 kts | 315° |
| 2026-05-06 16:04 | 50.90994 | 4.41247 | 2468 ft | 201 kts | 319° |
| 2026-05-06 16:04 | 50.92000 | 4.39494 | 2864 ft | 229 kts | 311° |
| 2026-05-06 16:04 | 50.92992 | 4.37429 | 3615 ft | 236 kts | 308° |
| 2026-05-06 16:04 | 50.93968 | 4.35368 | 4468 ft | 238 kts | 309° |
| 2026-05-06 16:05 | 50.95002 | 4.33259 | 5298 ft | 241 kts | 309° |
| 2026-05-06 16:05 | 50.96026 | 4.31181 | 6108 ft | 243 kts | 309° |
| 2026-05-06 16:05 | 50.97080 | 4.29056 | 6841 ft | 246 kts | 311° |
| 2026-05-06 16:05 | 50.98314 | 4.27137 | 7431 ft | 257 kts | 316° |
| 2026-05-06 16:06 | 50.99621 | 4.25052 | 8102 ft | 269 kts | 315° |
| 2026-05-06 16:06 | 51.00943 | 4.22926 | 9047 ft | 273 kts | 315° |
| 2026-05-06 16:06 | 51.02304 | 4.20775 | 9911 ft | 278 kts | 315° |
| 2026-05-06 16:06 | 51.03722 | 4.18540 | 10350 ft | 300 kts | 315° |
| 2026-05-06 16:07 | 51.05273 | 4.16086 | 10505 ft | 329 kts | 315° |
| 2026-05-06 16:07 | 51.06867 | 4.13556 | 10936 ft | 342 kts | 315° |
| 2026-05-06 16:07 | 51.08518 | 4.10931 | 11845 ft | 343 kts | 315° |
| 2026-05-06 16:07 | 51.09968 | 4.08628 | 12493 ft | 347 kts | 315° |